createdAt,value
2019-05-10T00:01:22.345Z,9.50
2019-05-10T00:04:13.213Z,9.50
2019-05-10T00:07:02.465Z,9.40
2019-05-10T00:09:33.548Z,9.40
2019-05-10T00:12:31.478Z,9.40
2019-05-10T00:15:03.428Z,9.50
2019-05-10T00:17:36.553Z,9.50
2019-05-10T00:20:08.771Z,9.60
2019-05-10T00:22:40.083Z,9.60
2019-05-10T00:25:11.472Z,9.70
2019-05-10T00:27:43.008Z,9.70
2019-05-10T00:30:14.743Z,9.80
2019-05-10T00:32:46.109Z,9.80
2019-05-10T00:35:17.520Z,9.80
2019-05-10T00:37:48.812Z,9.80
2019-05-10T00:40:20.458Z,9.80
2019-05-10T00:42:51.849Z,9.80
2019-05-10T00:45:23.236Z,9.90
2019-05-10T00:47:54.449Z,9.90
2019-05-10T00:50:25.791Z,10.00
2019-05-10T00:52:57.162Z,10.00
2019-05-10T00:55:28.644Z,10.00
2019-05-10T00:58:01.096Z,10.00
2019-05-10T01:00:32.808Z,10.00
2019-05-10T01:03:04.475Z,10.10
2019-05-10T01:05:35.982Z,10.10
2019-05-10T01:08:07.336Z,10.10
2019-05-10T01:10:38.822Z,10.10
2019-05-10T01:13:10.555Z,10.10
2019-05-10T01:15:42.277Z,10.10
2019-05-10T01:18:13.759Z,10.10
2019-05-10T01:20:45.644Z,10.00
2019-05-10T01:23:16.959Z,10.00
2019-05-10T01:25:48.379Z,9.90
2019-05-10T01:28:19.881Z,9.90
2019-05-10T01:30:51.318Z,9.80
2019-05-10T01:33:22.891Z,9.80
2019-05-10T01:35:54.207Z,9.70
2019-05-10T01:38:25.709Z,9.60
2019-05-10T01:40:57.233Z,9.50
2019-05-10T01:43:28.538Z,9.40
2019-05-10T01:46:00.196Z,9.40
2019-05-10T01:48:32.015Z,9.30
2019-05-10T01:51:03.357Z,9.20
2019-05-10T01:53:35.174Z,9.20
2019-05-10T01:56:06.859Z,9.10
2019-05-10T01:58:38.132Z,9.10
2019-05-10T02:01:09.649Z,9.10
2019-05-10T02:03:41.216Z,9.10
2019-05-10T02:06:12.780Z,9.10
2019-05-10T02:08:44.372Z,9.10
2019-05-10T02:11:16.483Z,9.10
2019-05-10T02:13:48.612Z,9.10
2019-05-10T02:16:20.009Z,9.20
2019-05-10T02:18:51.602Z,9.20
2019-05-10T02:21:23.095Z,9.30
2019-05-10T02:23:54.298Z,9.30
2019-05-10T02:26:25.730Z,9.30
2019-05-10T02:28:57.075Z,9.30
2019-05-10T02:31:28.577Z,9.30
2019-05-10T02:34:00.173Z,9.30
2019-05-10T02:36:33.013Z,9.30
2019-05-10T02:39:05.957Z,9.30
2019-05-10T02:41:37.308Z,9.30
2019-05-10T02:44:08.761Z,9.30
2019-05-10T02:46:40.777Z,9.40
2019-05-10T02:49:12.279Z,9.40
2019-05-10T02:51:43.835Z,9.40
2019-05-10T02:54:15.833Z,9.40
2019-05-10T02:56:48.101Z,9.40
2019-05-10T02:59:20.486Z,9.50
2019-05-10T03:01:55.095Z,9.50
2019-05-10T03:04:27.773Z,9.50
2019-05-10T03:07:06.811Z,9.60
2019-05-10T03:09:38.263Z,9.60
2019-05-10T03:12:24.608Z,9.60
2019-05-10T03:14:57.321Z,9.60
2019-05-10T03:17:29.222Z,9.60
2019-05-10T03:20:01.799Z,9.60
2019-05-10T03:22:38.750Z,9.60
2019-05-10T03:25:10.931Z,9.60
2019-05-10T03:27:42.783Z,9.60
2019-05-10T03:30:14.454Z,9.60
2019-05-10T03:32:45.681Z,9.60
2019-05-10T03:35:17.353Z,9.70
2019-05-10T03:37:49.314Z,9.70
2019-05-10T03:40:20.876Z,9.70
2019-05-10T03:42:52.187Z,9.70
2019-05-10T03:45:24.050Z,9.80
2019-05-10T03:47:55.802Z,9.80
2019-05-10T03:50:27.085Z,9.80
2019-05-10T03:52:58.440Z,9.80
2019-05-10T03:55:30.132Z,9.90
2019-05-10T03:58:01.765Z,9.90
2019-05-10T04:00:33.303Z,9.90
2019-05-10T04:03:05.261Z,9.90
2019-05-10T04:05:37.373Z,9.90
2019-05-10T04:08:09.074Z,10.00
2019-05-10T04:10:41.373Z,10.00
2019-05-10T04:13:13.768Z,10.00
2019-05-10T04:15:46.254Z,10.10
2019-05-10T04:18:18.072Z,10.10
2019-05-10T04:20:49.606Z,10.10
2019-05-10T04:23:21.294Z,10.10
2019-05-10T04:25:52.946Z,10.10
2019-05-10T04:28:25.864Z,10.10
2019-05-10T04:30:57.664Z,10.20
2019-05-10T04:33:29.265Z,10.20
2019-05-10T04:36:00.792Z,10.20
2019-05-10T04:38:32.837Z,10.20
2019-05-10T04:41:04.639Z,10.20
2019-05-10T04:43:36.854Z,10.20
2019-05-10T04:46:10.791Z,10.20
2019-05-10T04:48:42.432Z,10.20
2019-05-10T04:51:16.159Z,10.30
2019-05-10T04:53:48.906Z,10.30
2019-05-10T04:56:20.429Z,10.40
2019-05-10T04:58:53.087Z,10.50
2019-05-10T05:01:24.650Z,10.50
2019-05-10T05:03:56.249Z,10.60
2019-05-10T05:06:27.678Z,10.70
2019-05-10T05:08:59.073Z,10.60
2019-05-10T05:11:30.780Z,10.70
2019-05-10T05:14:02.293Z,10.70
2019-05-10T05:16:34.054Z,10.70
2019-05-10T05:19:05.486Z,10.80
2019-05-10T05:21:37.361Z,10.80
2019-05-10T05:24:09.033Z,11.00
2019-05-10T05:26:40.674Z,11.10
2019-05-10T05:29:12.567Z,11.20
2019-05-10T05:31:43.964Z,11.30
2019-05-10T05:34:15.459Z,11.50
2019-05-10T05:36:47.074Z,11.60
2019-05-10T05:39:18.637Z,11.70
2019-05-10T05:41:52.172Z,11.80
2019-05-10T05:44:26.121Z,12.00
2019-05-10T05:46:56.350Z,12.10
2019-05-10T05:49:27.865Z,12.20
2019-05-10T05:51:59.331Z,12.30
2019-05-10T05:54:32.177Z,12.30
2019-05-10T05:57:03.791Z,12.40
2019-05-10T05:59:36.614Z,12.50
2019-05-10T06:02:09.612Z,12.60
2019-05-10T06:04:46.080Z,12.70
2019-05-10T06:07:14.127Z,12.90
2019-05-10T06:09:45.658Z,12.90
2019-05-10T06:12:17.153Z,13.00
2019-05-10T06:14:49.616Z,13.10
2019-05-10T06:17:23.845Z,13.20
2019-05-10T06:19:54.985Z,13.30
2019-05-10T06:22:26.590Z,13.30
2019-05-10T06:24:57.926Z,13.40
2019-05-10T06:27:29.131Z,13.50
2019-05-10T06:30:00.736Z,13.60
2019-05-10T06:32:32.413Z,13.70
2019-05-10T06:35:04.106Z,13.70
2019-05-10T06:37:35.762Z,13.80
2019-05-10T06:40:07.745Z,14.00
2019-05-10T06:42:39.321Z,14.10
2019-05-10T06:45:14.780Z,14.20
2019-05-10T06:47:47.642Z,14.40
2019-05-10T06:50:17.528Z,14.50
2019-05-10T06:52:51.860Z,14.60
2019-05-10T06:55:22.052Z,14.80
2019-05-10T06:57:58.945Z,14.80
2019-05-10T07:00:26.955Z,14.90
2019-05-10T07:02:59.105Z,14.90
2019-05-10T07:05:30.411Z,14.90
2019-05-10T07:08:13.949Z,15.00
2019-05-10T07:10:35.673Z,15.10
2019-05-10T07:13:07.472Z,15.30
2019-05-10T07:15:42.355Z,15.50
2019-05-10T07:18:16.654Z,15.60
2019-05-10T07:20:46.476Z,15.70
2019-05-10T07:23:17.792Z,15.90
2019-05-10T07:25:49.277Z,16.10
2019-05-10T07:28:20.770Z,16.10
2019-05-10T07:30:52.605Z,16.20
2019-05-10T07:33:24.090Z,16.40
2019-05-10T07:35:55.853Z,16.60
2019-05-10T07:38:30.968Z,17.00
2019-05-10T07:41:00.614Z,17.30
2019-05-10T07:43:32.156Z,17.50
2019-05-10T07:46:08.931Z,17.80
2019-05-10T07:48:41.174Z,18.20
2019-05-10T07:51:10.559Z,18.70
2019-05-10T07:53:42.285Z,19.20
2019-05-10T07:56:13.951Z,19.50
2019-05-10T07:58:45.353Z,20.00
2019-05-10T08:01:29.351Z,20.50
2019-05-10T08:03:52.523Z,21.00
2019-05-10T08:06:23.442Z,21.60
2019-05-10T08:08:55.398Z,22.30
2019-05-10T08:11:29.621Z,22.70
2019-05-10T08:14:06.005Z,22.90
2019-05-10T08:16:35.074Z,23.00
2019-05-10T08:19:06.861Z,23.20
2019-05-10T08:21:38.272Z,23.30
2019-05-10T08:24:16.122Z,23.40
2019-05-10T08:26:42.792Z,23.50
2019-05-10T08:29:16.968Z,23.40
2019-05-10T08:31:52.748Z,23.30
2019-05-10T08:34:22.728Z,23.10
2019-05-10T08:36:54.028Z,22.90
2019-05-10T08:39:25.202Z,22.70
2019-05-10T08:42:04.871Z,22.70
2019-05-10T08:44:32.535Z,22.90
2019-05-10T08:47:07.668Z,23.30
2019-05-10T08:49:53.839Z,23.70
2019-05-10T08:52:12.052Z,24.00
2019-05-10T08:54:42.924Z,24.20
2019-05-10T08:57:18.628Z,24.50
2019-05-10T08:59:47.603Z,24.60
2019-05-10T09:02:23.128Z,24.70
2019-05-10T09:04:52.976Z,24.70
2019-05-10T09:07:24.569Z,24.70
2019-05-10T09:09:57.321Z,24.70
2019-05-10T09:12:29.634Z,24.80
2019-05-10T09:15:06.815Z,24.80
2019-05-10T09:17:35.439Z,24.90
2019-05-10T09:20:12.056Z,24.90
2019-05-10T09:22:42.386Z,24.90
2019-05-10T09:25:14.277Z,24.90
2019-05-10T09:27:45.778Z,24.80
2019-05-10T09:30:28.363Z,24.70
2019-05-10T09:33:01.006Z,24.70
2019-05-10T09:35:33.297Z,24.70
2019-05-10T09:38:04.761Z,24.70
2019-05-10T09:40:42.551Z,24.70
2019-05-10T09:43:09.843Z,24.60
2019-05-10T09:45:42.906Z,24.50
2019-05-10T09:48:15.606Z,24.50
2019-05-10T09:50:47.473Z,24.60
2019-05-10T09:56:42.103Z,24.50
2019-05-10T09:59:08.725Z,24.40
2019-05-10T10:01:40.222Z,24.20
2019-05-10T10:04:11.710Z,24.00
2019-05-10T10:06:48.256Z,24.00
2019-05-10T10:09:17.146Z,23.90
2019-05-10T10:11:58.202Z,23.70
2019-05-10T10:14:21.974Z,23.70
2019-05-10T10:16:58.154Z,23.80
2019-05-10T10:19:27.862Z,23.60
2019-05-10T10:30:58.951Z,22.90
2019-05-10T10:33:26.329Z,22.90
2019-05-10T10:36:04.962Z,22.90
2019-05-10T10:38:39.134Z,23.00
2019-05-10T10:41:05.167Z,23.00
2019-05-10T10:43:37.242Z,23.00
2019-05-10T10:46:12.378Z,23.00
2019-05-10T10:48:43.660Z,23.00
2019-05-10T10:51:18.224Z,23.10
2019-05-10T10:53:49.486Z,23.20
2019-05-10T10:56:20.975Z,23.30
2019-05-10T10:58:52.295Z,23.40
2019-05-10T11:01:25.521Z,23.70
2019-05-10T11:03:57.199Z,24.00
2019-05-10T11:06:28.746Z,24.10
2019-05-10T11:09:01.756Z,24.30
2019-05-10T11:11:39.018Z,24.50
2019-05-10T11:14:07.847Z,24.50
2019-05-10T11:16:41.290Z,24.60
2019-05-10T11:19:15.626Z,24.80
2019-05-10T11:21:46.880Z,25.00
2019-05-10T11:24:20.288Z,25.10
2019-05-10T11:26:51.779Z,25.00
2019-05-10T11:29:27.691Z,24.80
2019-05-10T11:32:14.332Z,24.60
2019-05-10T11:34:37.340Z,24.50
2019-05-10T11:37:03.033Z,24.40
2019-05-10T11:39:42.114Z,24.30
2019-05-10T11:42:07.660Z,24.20
2019-05-10T11:44:41.518Z,24.20
2019-05-10T11:47:22.951Z,24.20
2019-05-10T11:49:45.611Z,24.20
2019-05-10T11:52:17.059Z,24.10
2019-05-10T11:54:48.493Z,24.00
2019-05-10T11:57:21.971Z,24.00
2019-05-10T11:59:53.426Z,23.80
2019-05-10T12:02:37.912Z,23.70
2019-05-10T12:05:01.210Z,23.70
2019-05-10T12:07:35.195Z,23.70
2019-05-10T12:10:16.933Z,23.60
2019-05-10T12:12:53.876Z,23.50
2019-05-10T12:15:13.877Z,23.40
2019-05-10T12:17:46.868Z,23.40
2019-05-10T12:20:30.266Z,23.20
2019-05-10T12:22:52.483Z,23.20
2019-05-10T12:25:41.965Z,23.20
2019-05-10T12:27:56.951Z,23.20
2019-05-10T12:30:29.539Z,23.10
2019-05-10T12:33:08.879Z,23.10
2019-05-10T12:35:39.849Z,23.00
2019-05-10T12:38:08.226Z,22.90
2019-05-10T12:40:41.749Z,22.80
2019-05-10T12:43:12.755Z,22.80
2019-05-10T12:45:46.476Z,22.70
2019-05-10T12:48:17.819Z,22.70
2019-05-10T12:50:54.472Z,22.60
2019-05-10T12:53:23.729Z,22.40
2019-05-10T12:55:56.058Z,22.20
2019-05-10T12:58:27.553Z,22.10
2019-05-10T13:01:00.695Z,22.10
2019-05-10T13:03:33.776Z,22.10
2019-05-10T13:06:05.757Z,22.10
2019-05-10T13:08:37.489Z,22.10
2019-05-10T13:11:08.931Z,22.20
2019-05-10T13:13:40.576Z,22.10
2019-05-10T13:16:12.174Z,22.00
2019-05-10T13:18:50.650Z,21.90
2019-05-10T13:21:20.968Z,21.80
2019-05-10T13:23:53.186Z,21.80
2019-05-10T13:26:23.144Z,21.70
2019-05-10T13:28:55.848Z,21.60
2019-05-10T13:31:27.371Z,21.50
2019-05-10T13:33:58.812Z,21.40
2019-05-10T13:36:36.692Z,21.40
2019-05-10T13:39:04.374Z,21.30
2019-05-10T13:41:36.053Z,21.30
2019-05-10T13:44:07.762Z,21.30
2019-05-10T13:46:40.718Z,21.20
2019-05-10T13:49:12.463Z,21.20
2019-05-10T13:51:43.795Z,21.20
2019-05-10T13:54:15.289Z,21.20
2019-05-10T13:56:52.248Z,21.20
2019-05-10T13:59:19.670Z,21.20
2019-05-10T14:01:51.537Z,21.20
2019-05-10T14:04:23.340Z,21.10
2019-05-10T14:06:54.885Z,21.10
2019-05-10T14:09:26.187Z,21.10
2019-05-10T14:11:58.643Z,21.10
2019-05-10T14:14:30.146Z,21.00
2019-05-10T14:17:01.815Z,21.00
2019-05-10T14:19:35.834Z,21.00
2019-05-10T14:22:06.668Z,20.80
2019-05-10T14:24:38.205Z,20.60
2019-05-10T14:27:09.534Z,20.30
2019-05-10T14:32:52.429Z,19.80
2019-05-10T14:35:24.514Z,19.40
2019-05-10T14:38:06.888Z,19.10
2019-05-10T14:40:30.792Z,18.90
2019-05-10T14:43:02.668Z,18.60
2019-05-10T14:45:34.616Z,18.50
2019-05-10T14:48:06.532Z,18.30
2019-05-10T14:50:38.084Z,18.30
2019-05-10T14:53:09.556Z,18.20
2019-05-10T14:55:41.102Z,18.10
2019-05-10T14:58:12.977Z,18.00
2019-05-10T15:00:44.581Z,17.90
2019-05-10T15:03:16.077Z,17.90
2019-05-10T15:05:48.832Z,17.80
2019-05-10T15:08:21.114Z,17.70
2019-05-10T15:10:53.167Z,17.70
2019-05-10T15:13:25.504Z,17.60
2019-05-10T15:15:58.018Z,17.60
2019-05-10T15:18:29.629Z,17.50
2019-05-10T15:21:02.859Z,17.50
2019-05-10T15:23:34.830Z,17.40
2019-05-10T15:26:11.812Z,17.30
2019-05-10T15:28:42.261Z,17.30
2019-05-10T15:31:13.387Z,17.10
2019-05-10T15:33:44.973Z,17.00
2019-05-10T15:36:16.463Z,16.90
2019-05-10T15:38:51.687Z,16.70
2019-05-10T15:41:22.263Z,16.60
2019-05-10T15:43:55.194Z,16.50
2019-05-10T15:46:35.800Z,16.50
2019-05-10T15:49:00.442Z,16.40
2019-05-10T15:51:36.124Z,16.30
2019-05-10T15:54:07.455Z,16.30
2019-05-10T15:56:41.703Z,16.20
2019-05-10T15:59:12.977Z,16.20
2019-05-10T16:01:45.653Z,16.20
2019-05-10T16:04:17.326Z,16.10
2019-05-10T16:06:51.217Z,16.10
2019-05-10T16:09:22.890Z,16.10
2019-05-10T16:12:01.784Z,16.10
2019-05-10T16:14:33.082Z,16.10
2019-05-10T16:17:03.497Z,16.10
2019-05-10T16:19:35.070Z,16.10
2019-05-10T16:22:06.630Z,16.00
2019-05-10T16:24:38.197Z,16.10
2019-05-10T16:27:09.758Z,16.20
2019-05-10T16:29:41.425Z,16.20
2019-05-10T16:32:12.990Z,16.30
2019-05-10T16:34:44.565Z,16.40
2019-05-10T16:37:16.125Z,16.40
2019-05-10T16:39:49.930Z,16.50
2019-05-10T16:42:21.213Z,16.50
2019-05-10T16:44:52.770Z,16.50
2019-05-10T16:47:24.333Z,16.50
2019-05-10T16:49:55.619Z,16.50
2019-05-10T16:52:28.136Z,16.50
2019-05-10T16:55:03.782Z,16.50
2019-05-10T16:57:37.321Z,16.50
2019-05-10T17:00:08.464Z,16.50
2019-05-10T17:02:42.156Z,16.50
2019-05-10T17:05:17.142Z,16.50
2019-05-10T17:07:47.382Z,16.50
2019-05-10T17:10:19.225Z,16.50
2019-05-10T17:12:50.810Z,16.50
2019-05-10T17:15:22.314Z,16.40
2019-05-10T17:17:53.894Z,16.40
2019-05-10T17:20:25.463Z,16.40
2019-05-10T17:23:07.682Z,16.40
2019-05-10T17:25:30.372Z,16.40
2019-05-10T17:28:02.094Z,16.40
2019-05-10T17:30:33.668Z,16.40
2019-05-10T17:33:06.105Z,16.40
2019-05-10T17:35:42.111Z,16.40
2019-05-10T17:38:14.089Z,16.40
2019-05-10T17:40:47.996Z,16.40
2019-05-10T17:43:22.841Z,16.30
2019-05-10T17:45:54.716Z,16.30
2019-05-10T17:48:25.992Z,16.20
2019-05-10T17:50:57.525Z,16.20
2019-05-10T17:53:28.794Z,16.10
2019-05-10T17:56:02.879Z,16.00
2019-05-10T17:58:35.005Z,16.00
2019-05-10T18:01:06.839Z,15.90
2019-05-10T18:03:38.326Z,15.90
2019-05-10T18:06:23.052Z,15.80
2019-05-10T18:08:43.145Z,15.70
2019-05-10T18:11:14.540Z,15.70
2019-05-10T18:13:46.217Z,15.60
2019-05-10T18:16:17.515Z,15.50
2019-05-10T18:18:48.842Z,15.40
2019-05-10T18:21:22.193Z,15.40
2019-05-10T18:23:58.076Z,15.30
2019-05-10T18:26:33.815Z,15.20
2019-05-10T18:29:02.282Z,15.10
2019-05-10T18:31:33.904Z,15.00
2019-05-10T18:34:05.395Z,14.90
2019-05-10T18:36:51.154Z,14.80
2019-05-10T18:39:15.719Z,14.70
2019-05-10T18:41:46.574Z,14.60
2019-05-10T18:44:17.144Z,14.50
2019-05-10T18:46:48.870Z,14.50
2019-05-10T18:49:23.306Z,14.40
2019-05-10T18:52:03.511Z,14.30
2019-05-10T18:54:28.200Z,14.20
2019-05-10T18:57:04.773Z,14.20
2019-05-10T18:59:33.448Z,14.10
2019-05-10T19:02:05.294Z,14.00
2019-05-10T19:04:36.781Z,14.00
2019-05-10T19:07:10.197Z,13.90
2019-05-10T19:09:41.914Z,13.80
2019-05-10T19:12:19.701Z,13.80
2019-05-10T19:14:46.810Z,13.70
2019-05-10T19:17:18.175Z,13.70
2019-05-10T19:19:49.584Z,13.60
2019-05-10T19:22:21.225Z,13.50
2019-05-10T19:24:56.922Z,13.50
2019-05-10T19:27:26.657Z,13.40
2019-05-10T19:29:58.023Z,13.30
2019-05-10T19:32:29.576Z,13.30
2019-05-10T19:35:01.287Z,13.20
2019-05-10T19:37:34.730Z,13.20
2019-05-10T19:40:07.723Z,13.10
2019-05-10T19:42:43.495Z,13.00
2019-05-10T19:45:19.220Z,13.00
2019-05-10T19:47:49.995Z,12.90
2019-05-10T19:50:24.444Z,12.90
2019-05-10T19:52:58.336Z,12.90
2019-05-10T19:55:26.823Z,12.80
2019-05-10T19:57:58.430Z,12.80
2019-05-10T20:00:30.316Z,12.80
2019-05-10T20:03:01.773Z,12.80
2019-05-10T20:05:33.269Z,12.80
2019-05-10T20:08:04.856Z,12.80
2019-05-10T20:10:36.763Z,12.80
2019-05-10T20:13:08.148Z,12.80
2019-05-10T20:15:40.211Z,12.80
2019-05-10T20:18:11.852Z,12.80
2019-05-10T20:20:43.083Z,12.80
2019-05-10T20:23:15.693Z,12.90
2019-05-10T20:25:47.185Z,12.90
2019-05-10T20:28:18.772Z,13.00
2019-05-10T20:30:51.315Z,13.00
2019-05-10T20:33:22.619Z,12.90
2019-05-10T20:35:53.902Z,13.00
2019-05-10T20:38:25.242Z,13.00
2019-05-10T20:40:56.717Z,13.00
2019-05-10T20:43:28.321Z,12.90
2019-05-10T20:49:06.981Z,12.90
2019-05-10T20:51:38.246Z,12.90
2019-05-10T20:54:10.257Z,12.90
2019-05-10T20:56:41.900Z,12.90
2019-05-10T20:59:13.480Z,12.80
2019-05-10T21:01:44.939Z,12.80
2019-05-10T21:07:15.512Z,12.90
2019-05-10T21:09:46.889Z,12.80
2019-05-10T21:12:18.152Z,12.80
2019-05-10T21:14:49.825Z,12.80
2019-05-10T21:17:21.274Z,12.80
2019-05-10T21:19:52.778Z,12.90
2019-05-10T21:22:24.073Z,12.80
2019-05-10T21:24:56.085Z,12.80
2019-05-10T21:27:27.641Z,12.80
2019-05-10T21:29:59.098Z,12.80
2019-05-10T21:32:32.052Z,12.80
2019-05-10T21:35:04.045Z,12.70
2019-05-10T21:37:35.445Z,12.70
2019-05-10T21:40:07.229Z,12.70
2019-05-10T21:56:51.259Z,12.50
2019-05-10T23:37:52.906Z,12.10
2019-05-10T23:55:45.537Z,12.00
2019-05-10T23:58:18.256Z,12.10
